<?xml version="1.0" encoding="UTF-8" standalone="no" ?>
<gpx xmlns="http://www.topografix.com/GPX/1/1" xmlns:xsi="http://www.w3.org/2001/XMLSchema-instance" xsi:schemaLocation="http://www.topografix.com/GPX/1/1 http://www.topografix.com/GPX/1/1/gpx.xsd" version="1.1" creator="VisuGPX - https://www.visugpx.com">
  <metadata>
    <name>CARREFOUR DE LUYNES 4---</name>
  </metadata>
  <trk>
    <name><![CDATA[CARREFOUR DE LUYNES 4---]]></name>
    <trkseg>
      <trkpt lat="48.59169" lon="1.96616">
        <ele>99.63</ele>
        <time>2016-09-13T07:25:48Z</time>
      </trkpt>
      <trkpt lat="48.5917" lon="1.96615">
        <ele>103.96</ele>
        <time>2016-09-13T07:25:49Z</time>
      </trkpt>
      <trkpt lat="48.5917" lon="1.96615">
        <ele>99.63</ele>
        <time>2016-09-13T07:25:50Z</time>
      </trkpt>
      <trkpt lat="48.59171" lon="1.96615">
        <ele>104.44</ele>
        <time>2016-09-13T07:25:51Z</time>
      </trkpt>
      <trkpt lat="48.59171" lon="1.96614">
        <ele>100.6</ele>
        <time>2016-09-13T07:25:52Z</time>
      </trkpt>
      <trkpt lat="48.59171" lon="1.96613">
        <ele>103.96</ele>
        <time>2016-09-13T07:25:59Z</time>
      </trkpt>
      <trkpt lat="48.59171" lon="1.96612">
        <ele>102.04</ele>
        <time>2016-09-13T07:26:00Z</time>
      </trkpt>
      <trkpt lat="48.59165" lon="1.96599">
        <ele>105.4</ele>
        <time>2016-09-13T07:26:17Z</time>
      </trkpt>
      <trkpt lat="48.59166" lon="1.96599">
        <ele>108.29</ele>
        <time>2016-09-13T07:26:22Z</time>
      </trkpt>
      <trkpt lat="48.59167" lon="1.96601">
        <ele>111.65</ele>
        <time>2016-09-13T07:26:28Z</time>
      </trkpt>
      <trkpt lat="48.59167" lon="1.966">
        <ele>114.05</ele>
        <time>2016-09-13T07:26:34Z</time>
      </trkpt>
      <trkpt lat="48.59166" lon="1.96598">
        <ele>116.94</ele>
        <time>2016-09-13T07:26:42Z</time>
      </trkpt>
      <trkpt lat="48.59163" lon="1.96595">
        <ele>120.78</ele>
        <time>2016-09-13T07:26:52Z</time>
      </trkpt>
      <trkpt lat="48.5916" lon="1.96592">
        <ele>124.15</ele>
        <time>2016-09-13T07:27:03Z</time>
      </trkpt>
      <trkpt lat="48.59164" lon="1.96592">
        <ele>127.51</ele>
        <time>2016-09-13T07:27:17Z</time>
      </trkpt>
      <trkpt lat="48.59164" lon="1.96595">
        <ele>128.95</ele>
        <time>2016-09-13T07:27:34Z</time>
      </trkpt>
      <trkpt lat="48.59164" lon="1.96597">
        <ele>130.88</ele>
        <time>2016-09-13T07:28:02Z</time>
      </trkpt>
      <trkpt lat="48.59164" lon="1.96598">
        <ele>131.36</ele>
        <time>2016-09-13T07:28:34Z</time>
      </trkpt>
      <trkpt lat="48.59166" lon="1.96599">
        <ele>131.36</ele>
        <time>2016-09-13T07:29:02Z</time>
      </trkpt>
      <trkpt lat="48.59169" lon="1.96603">
        <ele>131.36</ele>
        <time>2016-09-13T07:29:13Z</time>
      </trkpt>
      <trkpt lat="48.5917" lon="1.96607">
        <ele>130.88</ele>
        <time>2016-09-13T07:29:23Z</time>
      </trkpt>
      <trkpt lat="48.5917" lon="1.96609">
        <ele>129.92</ele>
        <time>2016-09-13T07:29:37Z</time>
      </trkpt>
      <trkpt lat="48.59171" lon="1.96609">
        <ele>130.88</ele>
        <time>2016-09-13T07:29:50Z</time>
      </trkpt>
      <trkpt lat="48.59169" lon="1.96606">
        <ele>131.84</ele>
        <time>2016-09-13T07:30:04Z</time>
      </trkpt>
      <trkpt lat="48.59169" lon="1.96604">
        <ele>128.95</ele>
        <time>2016-09-13T07:30:10Z</time>
      </trkpt>
      <trkpt lat="48.59169" lon="1.96604">
        <ele>132.32</ele>
        <time>2016-09-13T07:30:11Z</time>
      </trkpt>
      <trkpt lat="48.59171" lon="1.96603">
        <ele>130.88</ele>
        <time>2016-09-13T07:30:25Z</time>
      </trkpt>
      <trkpt lat="48.59171" lon="1.96606">
        <ele>130.4</ele>
        <time>2016-09-13T07:30:42Z</time>
      </trkpt>
      <trkpt lat="48.5917" lon="1.96603">
        <ele>130.4</ele>
        <time>2016-09-13T07:31:01Z</time>
      </trkpt>
      <trkpt lat="48.59175" lon="1.96608">
        <ele>130.4</ele>
        <time>2016-09-13T07:31:32Z</time>
      </trkpt>
      <trkpt lat="48.59174" lon="1.96606">
        <ele>130.4</ele>
        <time>2016-09-13T07:31:54Z</time>
      </trkpt>
      <trkpt lat="48.59175" lon="1.96603">
        <ele>130.88</ele>
        <time>2016-09-13T07:32:08Z</time>
      </trkpt>
      <trkpt lat="48.59173" lon="1.96601">
        <ele>130.4</ele>
        <time>2016-09-13T07:32:20Z</time>
      </trkpt>
      <trkpt lat="48.59174" lon="1.96604">
        <ele>130.4</ele>
        <time>2016-09-13T07:32:42Z</time>
      </trkpt>
      <trkpt lat="48.5918" lon="1.96599">
        <ele>130.88</ele>
        <time>2016-09-13T07:33:02Z</time>
      </trkpt>
      <trkpt lat="48.59187" lon="1.96587">
        <ele>130.88</ele>
        <time>2016-09-13T07:33:12Z</time>
      </trkpt>
      <trkpt lat="48.59202" lon="1.96556">
        <ele>131.36</ele>
        <time>2016-09-13T07:33:32Z</time>
      </trkpt>
      <trkpt lat="48.59217" lon="1.96537">
        <ele>131.84</ele>
        <time>2016-09-13T07:33:49Z</time>
      </trkpt>
      <trkpt lat="48.59236" lon="1.9652">
        <ele>135.2</ele>
        <time>2016-09-13T07:34:07Z</time>
      </trkpt>
      <trkpt lat="48.59259" lon="1.96492">
        <ele>136.16</ele>
        <time>2016-09-13T07:34:28Z</time>
      </trkpt>
      <trkpt lat="48.59277" lon="1.96477">
        <ele>139.05</ele>
        <time>2016-09-13T07:34:45Z</time>
      </trkpt>
      <trkpt lat="48.59306" lon="1.96481">
        <ele>141.45</ele>
        <time>2016-09-13T07:35:05Z</time>
      </trkpt>
      <trkpt lat="48.59328" lon="1.96498">
        <ele>144.34</ele>
        <time>2016-09-13T07:35:23Z</time>
      </trkpt>
      <trkpt lat="48.59337" lon="1.96504">
        <ele>144.82</ele>
        <time>2016-09-13T07:35:30Z</time>
      </trkpt>
      <trkpt lat="48.5936" lon="1.96532">
        <ele>146.26</ele>
        <time>2016-09-13T07:35:52Z</time>
      </trkpt>
      <trkpt lat="48.59379" lon="1.96553">
        <ele>147.22</ele>
        <time>2016-09-13T07:36:11Z</time>
      </trkpt>
      <trkpt lat="48.59397" lon="1.96566">
        <ele>150.58</ele>
        <time>2016-09-13T07:36:23Z</time>
      </trkpt>
      <trkpt lat="48.59415" lon="1.96583">
        <ele>152.51</ele>
        <time>2016-09-13T07:36:40Z</time>
      </trkpt>
      <trkpt lat="48.59436" lon="1.96601">
        <ele>154.43</ele>
        <time>2016-09-13T07:36:58Z</time>
      </trkpt>
      <trkpt lat="48.59446" lon="1.96608">
        <ele>155.87</ele>
        <time>2016-09-13T07:37:10Z</time>
      </trkpt>
      <trkpt lat="48.59453" lon="1.96618">
        <ele>156.35</ele>
        <time>2016-09-13T07:37:20Z</time>
      </trkpt>
      <trkpt lat="48.59473" lon="1.9664">
        <ele>158.27</ele>
        <time>2016-09-13T07:37:38Z</time>
      </trkpt>
      <trkpt lat="48.59478" lon="1.96647">
        <ele>159.24</ele>
        <time>2016-09-13T07:37:44Z</time>
      </trkpt>
      <trkpt lat="48.59499" lon="1.96662">
        <ele>160.2</ele>
        <time>2016-09-13T07:38:01Z</time>
      </trkpt>
      <trkpt lat="48.59512" lon="1.96673">
        <ele>159.24</ele>
        <time>2016-09-13T07:38:13Z</time>
      </trkpt>
      <trkpt lat="48.59515" lon="1.96675">
        <ele>158.75</ele>
        <time>2016-09-13T07:38:15Z</time>
      </trkpt>
      <trkpt lat="48.59534" lon="1.967">
        <ele>157.79</ele>
        <time>2016-09-13T07:38:33Z</time>
      </trkpt>
      <trkpt lat="48.59548" lon="1.96717">
        <ele>157.31</ele>
        <time>2016-09-13T07:38:48Z</time>
      </trkpt>
      <trkpt lat="48.59565" lon="1.9673">
        <ele>156.35</ele>
        <time>2016-09-13T07:39:00Z</time>
      </trkpt>
      <trkpt lat="48.59571" lon="1.96735">
        <ele>155.87</ele>
        <time>2016-09-13T07:39:04Z</time>
      </trkpt>
      <trkpt lat="48.59588" lon="1.96757">
        <ele>154.91</ele>
        <time>2016-09-13T07:39:20Z</time>
      </trkpt>
      <trkpt lat="48.59614" lon="1.96785">
        <ele>154.91</ele>
        <time>2016-09-13T07:39:41Z</time>
      </trkpt>
      <trkpt lat="48.59624" lon="1.96796">
        <ele>154.43</ele>
        <time>2016-09-13T07:39:50Z</time>
      </trkpt>
      <trkpt lat="48.59634" lon="1.96805">
        <ele>153.95</ele>
        <time>2016-09-13T07:39:56Z</time>
      </trkpt>
      <trkpt lat="48.59662" lon="1.96831">
        <ele>152.03</ele>
        <time>2016-09-13T07:40:17Z</time>
      </trkpt>
      <trkpt lat="48.59691" lon="1.96854">
        <ele>150.58</ele>
        <time>2016-09-13T07:40:38Z</time>
      </trkpt>
      <trkpt lat="48.59703" lon="1.96868">
        <ele>151.06</ele>
        <time>2016-09-13T07:40:49Z</time>
      </trkpt>
      <trkpt lat="48.5972" lon="1.96891">
        <ele>152.03</ele>
        <time>2016-09-13T07:41:07Z</time>
      </trkpt>
      <trkpt lat="48.59737" lon="1.96898">
        <ele>152.99</ele>
        <time>2016-09-13T07:41:20Z</time>
      </trkpt>
      <trkpt lat="48.59746" lon="1.96863">
        <ele>154.43</ele>
        <time>2016-09-13T07:41:38Z</time>
      </trkpt>
      <trkpt lat="48.59748" lon="1.96854">
        <ele>155.39</ele>
        <time>2016-09-13T07:41:42Z</time>
      </trkpt>
      <trkpt lat="48.59758" lon="1.96829">
        <ele>157.79</ele>
        <time>2016-09-13T07:41:58Z</time>
      </trkpt>
      <trkpt lat="48.59774" lon="1.96806">
        <ele>161.16</ele>
        <time>2016-09-13T07:42:18Z</time>
      </trkpt>
      <trkpt lat="48.59779" lon="1.96803">
        <ele>161.16</ele>
        <time>2016-09-13T07:42:34Z</time>
      </trkpt>
      <trkpt lat="48.59787" lon="1.96785">
        <ele>163.08</ele>
        <time>2016-09-13T07:42:50Z</time>
      </trkpt>
      <trkpt lat="48.59799" lon="1.96758">
        <ele>164.52</ele>
        <time>2016-09-13T07:43:06Z</time>
      </trkpt>
      <trkpt lat="48.59811" lon="1.96733">
        <ele>164.52</ele>
        <time>2016-09-13T07:43:22Z</time>
      </trkpt>
      <trkpt lat="48.59826" lon="1.96703">
        <ele>165.48</ele>
        <time>2016-09-13T07:43:40Z</time>
      </trkpt>
      <trkpt lat="48.59833" lon="1.96691">
        <ele>165.96</ele>
        <time>2016-09-13T07:43:47Z</time>
      </trkpt>
      <trkpt lat="48.59844" lon="1.96665">
        <ele>165.48</ele>
        <time>2016-09-13T07:44:02Z</time>
      </trkpt>
      <trkpt lat="48.59857" lon="1.96641">
        <ele>165.48</ele>
        <time>2016-09-13T07:44:15Z</time>
      </trkpt>
      <trkpt lat="48.5986" lon="1.96629">
        <ele>165</ele>
        <time>2016-09-13T07:44:22Z</time>
      </trkpt>
      <trkpt lat="48.59878" lon="1.96596">
        <ele>163.56</ele>
        <time>2016-09-13T07:44:40Z</time>
      </trkpt>
      <trkpt lat="48.59889" lon="1.96571">
        <ele>161.16</ele>
        <time>2016-09-13T07:44:57Z</time>
      </trkpt>
      <trkpt lat="48.59898" lon="1.96552">
        <ele>157.79</ele>
        <time>2016-09-13T07:45:11Z</time>
      </trkpt>
      <trkpt lat="48.59915" lon="1.96517">
        <ele>154.91</ele>
        <time>2016-09-13T07:45:32Z</time>
      </trkpt>
      <trkpt lat="48.59931" lon="1.96481">
        <ele>152.99</ele>
        <time>2016-09-13T07:45:51Z</time>
      </trkpt>
      <trkpt lat="48.59948" lon="1.96448">
        <ele>151.54</ele>
        <time>2016-09-13T07:46:08Z</time>
      </trkpt>
      <trkpt lat="48.59963" lon="1.96411">
        <ele>152.51</ele>
        <time>2016-09-13T07:46:28Z</time>
      </trkpt>
      <trkpt lat="48.59968" lon="1.96401">
        <ele>153.95</ele>
        <time>2016-09-13T07:46:35Z</time>
      </trkpt>
      <trkpt lat="48.59984" lon="1.96366">
        <ele>155.87</ele>
        <time>2016-09-13T07:46:57Z</time>
      </trkpt>
      <trkpt lat="48.59994" lon="1.96349">
        <ele>159.24</ele>
        <time>2016-09-13T07:47:08Z</time>
      </trkpt>
      <trkpt lat="48.60009" lon="1.96321">
        <ele>159.72</ele>
        <time>2016-09-13T07:47:27Z</time>
      </trkpt>
      <trkpt lat="48.60023" lon="1.9629">
        <ele>158.75</ele>
        <time>2016-09-13T07:47:47Z</time>
      </trkpt>
      <trkpt lat="48.60037" lon="1.9627">
        <ele>158.27</ele>
        <time>2016-09-13T07:48:02Z</time>
      </trkpt>
      <trkpt lat="48.60053" lon="1.96245">
        <ele>160.2</ele>
        <time>2016-09-13T07:48:22Z</time>
      </trkpt>
      <trkpt lat="48.60065" lon="1.96215">
        <ele>158.27</ele>
        <time>2016-09-13T07:48:40Z</time>
      </trkpt>
      <trkpt lat="48.60074" lon="1.96191">
        <ele>155.39</ele>
        <time>2016-09-13T07:48:56Z</time>
      </trkpt>
      <trkpt lat="48.60075" lon="1.9619">
        <ele>154.43</ele>
        <time>2016-09-13T07:48:58Z</time>
      </trkpt>
      <trkpt lat="48.60081" lon="1.96175">
        <ele>151.06</ele>
        <time>2016-09-13T07:49:10Z</time>
      </trkpt>
      <trkpt lat="48.60092" lon="1.96165">
        <ele>147.7</ele>
        <time>2016-09-13T07:49:24Z</time>
      </trkpt>
      <trkpt lat="48.60097" lon="1.96144">
        <ele>144.82</ele>
        <time>2016-09-13T07:49:38Z</time>
      </trkpt>
      <trkpt lat="48.60106" lon="1.96134">
        <ele>141.45</ele>
        <time>2016-09-13T07:49:52Z</time>
      </trkpt>
      <trkpt lat="48.60118" lon="1.96108">
        <ele>138.09</ele>
        <time>2016-09-13T07:50:10Z</time>
      </trkpt>
      <trkpt lat="48.60123" lon="1.96093">
        <ele>135.2</ele>
        <time>2016-09-13T07:50:23Z</time>
      </trkpt>
      <trkpt lat="48.60126" lon="1.96088">
        <ele>131.84</ele>
        <time>2016-09-13T07:50:38Z</time>
      </trkpt>
      <trkpt lat="48.6013" lon="1.96076">
        <ele>128.95</ele>
        <time>2016-09-13T07:50:52Z</time>
      </trkpt>
      <trkpt lat="48.60143" lon="1.96053">
        <ele>127.51</ele>
        <time>2016-09-13T07:51:10Z</time>
      </trkpt>
      <trkpt lat="48.60144" lon="1.9605">
        <ele>127.03</ele>
        <time>2016-09-13T07:51:31Z</time>
      </trkpt>
      <trkpt lat="48.60144" lon="1.96052">
        <ele>127.03</ele>
        <time>2016-09-13T07:51:55Z</time>
      </trkpt>
      <trkpt lat="48.60145" lon="1.96051">
        <ele>126.55</ele>
        <time>2016-09-13T07:52:16Z</time>
      </trkpt>
      <trkpt lat="48.60148" lon="1.96055">
        <ele>127.03</ele>
        <time>2016-09-13T07:52:33Z</time>
      </trkpt>
      <trkpt lat="48.6014" lon="1.96052">
        <ele>127.03</ele>
        <time>2016-09-13T07:52:52Z</time>
      </trkpt>
      <trkpt lat="48.60133" lon="1.96015">
        <ele>126.07</ele>
        <time>2016-09-13T07:53:10Z</time>
      </trkpt>
      <trkpt lat="48.60126" lon="1.95975">
        <ele>125.11</ele>
        <time>2016-09-13T07:53:28Z</time>
      </trkpt>
      <trkpt lat="48.6012" lon="1.95938">
        <ele>124.15</ele>
        <time>2016-09-13T07:53:47Z</time>
      </trkpt>
      <trkpt lat="48.60119" lon="1.9593">
        <ele>123.67</ele>
        <time>2016-09-13T07:53:52Z</time>
      </trkpt>
      <trkpt lat="48.60108" lon="1.95897">
        <ele>122.71</ele>
        <time>2016-09-13T07:54:12Z</time>
      </trkpt>
      <trkpt lat="48.60103" lon="1.95887">
        <ele>122.71</ele>
        <time>2016-09-13T07:54:18Z</time>
      </trkpt>
      <trkpt lat="48.60088" lon="1.9587">
        <ele>122.22</ele>
        <time>2016-09-13T07:54:36Z</time>
      </trkpt>
      <trkpt lat="48.60067" lon="1.95851">
        <ele>123.19</ele>
        <time>2016-09-13T07:54:56Z</time>
      </trkpt>
      <trkpt lat="48.60054" lon="1.95827">
        <ele>123.67</ele>
        <time>2016-09-13T07:55:14Z</time>
      </trkpt>
      <trkpt lat="48.60036" lon="1.95792">
        <ele>124.15</ele>
        <time>2016-09-13T07:55:30Z</time>
      </trkpt>
      <trkpt lat="48.60028" lon="1.95767">
        <ele>125.11</ele>
        <time>2016-09-13T07:55:42Z</time>
      </trkpt>
      <trkpt lat="48.60013" lon="1.95733">
        <ele>125.59</ele>
        <time>2016-09-13T07:56:00Z</time>
      </trkpt>
      <trkpt lat="48.60007" lon="1.95713">
        <ele>126.55</ele>
        <time>2016-09-13T07:56:12Z</time>
      </trkpt>
      <trkpt lat="48.59991" lon="1.95694">
        <ele>127.51</ele>
        <time>2016-09-13T07:56:28Z</time>
      </trkpt>
      <trkpt lat="48.59974" lon="1.95684">
        <ele>129.43</ele>
        <time>2016-09-13T07:56:45Z</time>
      </trkpt>
      <trkpt lat="48.59955" lon="1.95676">
        <ele>131.36</ele>
        <time>2016-09-13T07:57:03Z</time>
      </trkpt>
      <trkpt lat="48.59926" lon="1.95684">
        <ele>129.92</ele>
        <time>2016-09-13T07:57:21Z</time>
      </trkpt>
      <trkpt lat="48.59899" lon="1.95686">
        <ele>128.47</ele>
        <time>2016-09-13T07:57:38Z</time>
      </trkpt>
      <trkpt lat="48.59874" lon="1.95684">
        <ele>127.99</ele>
        <time>2016-09-13T07:57:57Z</time>
      </trkpt>
      <trkpt lat="48.59879" lon="1.95662">
        <ele>127.51</ele>
        <time>2016-09-13T07:58:09Z</time>
      </trkpt>
      <trkpt lat="48.59899" lon="1.95624">
        <ele>127.51</ele>
        <time>2016-09-13T07:58:30Z</time>
      </trkpt>
      <trkpt lat="48.59913" lon="1.9559">
        <ele>127.51</ele>
        <time>2016-09-13T07:58:51Z</time>
      </trkpt>
      <trkpt lat="48.5993" lon="1.95554">
        <ele>126.55</ele>
        <time>2016-09-13T07:59:13Z</time>
      </trkpt>
      <trkpt lat="48.59942" lon="1.95526">
        <ele>124.63</ele>
        <time>2016-09-13T07:59:31Z</time>
      </trkpt>
      <trkpt lat="48.59955" lon="1.95492">
        <ele>122.22</ele>
        <time>2016-09-13T07:59:51Z</time>
      </trkpt>
      <trkpt lat="48.59959" lon="1.95483">
        <ele>121.74</ele>
        <time>2016-09-13T07:59:55Z</time>
      </trkpt>
      <trkpt lat="48.5998" lon="1.9544">
        <ele>120.3</ele>
        <time>2016-09-13T08:00:17Z</time>
      </trkpt>
      <trkpt lat="48.59999" lon="1.95405">
        <ele>118.86</ele>
        <time>2016-09-13T08:00:37Z</time>
      </trkpt>
      <trkpt lat="48.60013" lon="1.95374">
        <ele>118.86</ele>
        <time>2016-09-13T08:00:58Z</time>
      </trkpt>
      <trkpt lat="48.60033" lon="1.95333">
        <ele>119.82</ele>
        <time>2016-09-13T08:01:21Z</time>
      </trkpt>
      <trkpt lat="48.60058" lon="1.95309">
        <ele>118.38</ele>
        <time>2016-09-13T08:01:43Z</time>
      </trkpt>
      <trkpt lat="48.60076" lon="1.95276">
        <ele>118.38</ele>
        <time>2016-09-13T08:02:02Z</time>
      </trkpt>
      <trkpt lat="48.60097" lon="1.953">
        <ele>118.38</ele>
        <time>2016-09-13T08:02:22Z</time>
      </trkpt>
      <trkpt lat="48.60118" lon="1.95325">
        <ele>117.9</ele>
        <time>2016-09-13T08:02:43Z</time>
      </trkpt>
      <trkpt lat="48.60136" lon="1.95345">
        <ele>117.42</ele>
        <time>2016-09-13T08:03:01Z</time>
      </trkpt>
      <trkpt lat="48.60156" lon="1.95364">
        <ele>117.42</ele>
        <time>2016-09-13T08:03:18Z</time>
      </trkpt>
      <trkpt lat="48.60179" lon="1.95386">
        <ele>116.94</ele>
        <time>2016-09-13T08:03:37Z</time>
      </trkpt>
      <trkpt lat="48.60196" lon="1.95409">
        <ele>116.46</ele>
        <time>2016-09-13T08:03:53Z</time>
      </trkpt>
      <trkpt lat="48.6022" lon="1.95431">
        <ele>117.9</ele>
        <time>2016-09-13T08:04:14Z</time>
      </trkpt>
      <trkpt lat="48.6024" lon="1.95457">
        <ele>117.42</ele>
        <time>2016-09-13T08:04:32Z</time>
      </trkpt>
      <trkpt lat="48.60258" lon="1.95487">
        <ele>116.46</ele>
        <time>2016-09-13T08:04:52Z</time>
      </trkpt>
      <trkpt lat="48.60275" lon="1.95505">
        <ele>116.46</ele>
        <time>2016-09-13T08:05:11Z</time>
      </trkpt>
      <trkpt lat="48.60301" lon="1.95524">
        <ele>116.94</ele>
        <time>2016-09-13T08:05:28Z</time>
      </trkpt>
      <trkpt lat="48.60321" lon="1.95552">
        <ele>116.94</ele>
        <time>2016-09-13T08:05:45Z</time>
      </trkpt>
      <trkpt lat="48.60342" lon="1.95575">
        <ele>116.94</ele>
        <time>2016-09-13T08:06:04Z</time>
      </trkpt>
      <trkpt lat="48.60367" lon="1.95597">
        <ele>116.46</ele>
        <time>2016-09-13T08:06:23Z</time>
      </trkpt>
      <trkpt lat="48.60384" lon="1.95626">
        <ele>116.46</ele>
        <time>2016-09-13T08:06:42Z</time>
      </trkpt>
      <trkpt lat="48.60395" lon="1.95631">
        <ele>116.46</ele>
        <time>2016-09-13T08:06:59Z</time>
      </trkpt>
      <trkpt lat="48.60415" lon="1.95654">
        <ele>116.94</ele>
        <time>2016-09-13T08:07:22Z</time>
      </trkpt>
      <trkpt lat="48.6044" lon="1.95681">
        <ele>115.5</ele>
        <time>2016-09-13T08:07:43Z</time>
      </trkpt>
      <trkpt lat="48.60458" lon="1.95695">
        <ele>115.5</ele>
        <time>2016-09-13T08:07:53Z</time>
      </trkpt>
      <trkpt lat="48.60479" lon="1.95721">
        <ele>115.98</ele>
        <time>2016-09-13T08:08:15Z</time>
      </trkpt>
      <trkpt lat="48.60499" lon="1.95744">
        <ele>115.5</ele>
        <time>2016-09-13T08:08:32Z</time>
      </trkpt>
      <trkpt lat="48.60519" lon="1.95771">
        <ele>115.01</ele>
        <time>2016-09-13T08:08:54Z</time>
      </trkpt>
      <trkpt lat="48.60543" lon="1.95799">
        <ele>114.05</ele>
        <time>2016-09-13T08:09:13Z</time>
      </trkpt>
      <trkpt lat="48.60566" lon="1.95824">
        <ele>114.05</ele>
        <time>2016-09-13T08:09:33Z</time>
      </trkpt>
      <trkpt lat="48.60588" lon="1.95843">
        <ele>115.01</ele>
        <time>2016-09-13T08:09:53Z</time>
      </trkpt>
      <trkpt lat="48.60613" lon="1.95874">
        <ele>114.05</ele>
        <time>2016-09-13T08:10:13Z</time>
      </trkpt>
      <trkpt lat="48.60637" lon="1.959">
        <ele>114.05</ele>
        <time>2016-09-13T08:10:32Z</time>
      </trkpt>
      <trkpt lat="48.6066" lon="1.95925">
        <ele>113.57</ele>
        <time>2016-09-13T08:10:51Z</time>
      </trkpt>
      <trkpt lat="48.60688" lon="1.95954">
        <ele>114.05</ele>
        <time>2016-09-13T08:11:13Z</time>
      </trkpt>
      <trkpt lat="48.60711" lon="1.95977">
        <ele>115.01</ele>
        <time>2016-09-13T08:11:31Z</time>
      </trkpt>
      <trkpt lat="48.60721" lon="1.95996">
        <ele>115.5</ele>
        <time>2016-09-13T08:11:44Z</time>
      </trkpt>
      <trkpt lat="48.60721" lon="1.96036">
        <ele>116.46</ele>
        <time>2016-09-13T08:12:05Z</time>
      </trkpt>
      <trkpt lat="48.60724" lon="1.96052">
        <ele>118.86</ele>
        <time>2016-09-13T08:12:22Z</time>
      </trkpt>
      <trkpt lat="48.60724" lon="1.96079">
        <ele>120.3</ele>
        <time>2016-09-13T08:12:39Z</time>
      </trkpt>
      <trkpt lat="48.60711" lon="1.96111">
        <ele>121.74</ele>
        <time>2016-09-13T08:12:56Z</time>
      </trkpt>
      <trkpt lat="48.60707" lon="1.96122">
        <ele>121.74</ele>
        <time>2016-09-13T08:13:02Z</time>
      </trkpt>
      <trkpt lat="48.60691" lon="1.96152">
        <ele>123.67</ele>
        <time>2016-09-13T08:13:19Z</time>
      </trkpt>
      <trkpt lat="48.60684" lon="1.96166">
        <ele>127.99</ele>
        <time>2016-09-13T08:13:29Z</time>
      </trkpt>
      <trkpt lat="48.60676" lon="1.96187">
        <ele>127.51</ele>
        <time>2016-09-13T08:13:46Z</time>
      </trkpt>
      <trkpt lat="48.60665" lon="1.9621">
        <ele>128.95</ele>
        <time>2016-09-13T08:14:03Z</time>
      </trkpt>
      <trkpt lat="48.6065" lon="1.96249">
        <ele>129.43</ele>
        <time>2016-09-13T08:14:19Z</time>
      </trkpt>
      <trkpt lat="48.60649" lon="1.96248">
        <ele>128.95</ele>
        <time>2016-09-13T08:14:45Z</time>
      </trkpt>
      <trkpt lat="48.60648" lon="1.96246">
        <ele>129.92</ele>
        <time>2016-09-13T08:15:14Z</time>
      </trkpt>
      <trkpt lat="48.60648" lon="1.96248">
        <ele>128.47</ele>
        <time>2016-09-13T08:15:34Z</time>
      </trkpt>
      <trkpt lat="48.6065" lon="1.96246">
        <ele>128.47</ele>
        <time>2016-09-13T08:15:58Z</time>
      </trkpt>
      <trkpt lat="48.60648" lon="1.96247">
        <ele>128.47</ele>
        <time>2016-09-13T08:16:16Z</time>
      </trkpt>
      <trkpt lat="48.60649" lon="1.96256">
        <ele>128.47</ele>
        <time>2016-09-13T08:16:37Z</time>
      </trkpt>
      <trkpt lat="48.6065" lon="1.96251">
        <ele>128.47</ele>
        <time>2016-09-13T08:16:57Z</time>
      </trkpt>
      <trkpt lat="48.6065" lon="1.96249">
        <ele>128.47</ele>
        <time>2016-09-13T08:17:18Z</time>
      </trkpt>
      <trkpt lat="48.60645" lon="1.96257">
        <ele>128.47</ele>
        <time>2016-09-13T08:17:36Z</time>
      </trkpt>
      <trkpt lat="48.60628" lon="1.96292">
        <ele>129.43</ele>
        <time>2016-09-13T08:17:54Z</time>
      </trkpt>
      <trkpt lat="48.60608" lon="1.96333">
        <ele>130.4</ele>
        <time>2016-09-13T08:18:14Z</time>
      </trkpt>
      <trkpt lat="48.60602" lon="1.96347">
        <ele>130.4</ele>
        <time>2016-09-13T08:18:32Z</time>
      </trkpt>
      <trkpt lat="48.60593" lon="1.96368">
        <ele>131.84</ele>
        <time>2016-09-13T08:18:52Z</time>
      </trkpt>
      <trkpt lat="48.60582" lon="1.96395">
        <ele>135.2</ele>
        <time>2016-09-13T08:19:08Z</time>
      </trkpt>
      <trkpt lat="48.60566" lon="1.96425">
        <ele>138.57</ele>
        <time>2016-09-13T08:19:24Z</time>
      </trkpt>
      <trkpt lat="48.60549" lon="1.96464">
        <ele>140.01</ele>
        <time>2016-09-13T08:19:44Z</time>
      </trkpt>
      <trkpt lat="48.60534" lon="1.96494">
        <ele>139.53</ele>
        <time>2016-09-13T08:20:02Z</time>
      </trkpt>
      <trkpt lat="48.6052" lon="1.96525">
        <ele>139.53</ele>
        <time>2016-09-13T08:20:22Z</time>
      </trkpt>
      <trkpt lat="48.6051" lon="1.96546">
        <ele>140.49</ele>
        <time>2016-09-13T08:20:33Z</time>
      </trkpt>
      <trkpt lat="48.60495" lon="1.96581">
        <ele>140.97</ele>
        <time>2016-09-13T08:20:51Z</time>
      </trkpt>
      <trkpt lat="48.60485" lon="1.96605">
        <ele>141.45</ele>
        <time>2016-09-13T08:21:08Z</time>
      </trkpt>
      <trkpt lat="48.60483" lon="1.9661">
        <ele>141.45</ele>
        <time>2016-09-13T08:21:11Z</time>
      </trkpt>
      <trkpt lat="48.60469" lon="1.96646">
        <ele>141.93</ele>
        <time>2016-09-13T08:21:29Z</time>
      </trkpt>
      <trkpt lat="48.60457" lon="1.96672">
        <ele>143.37</ele>
        <time>2016-09-13T08:21:47Z</time>
      </trkpt>
      <trkpt lat="48.60444" lon="1.96698">
        <ele>144.34</ele>
        <time>2016-09-13T08:22:04Z</time>
      </trkpt>
      <trkpt lat="48.60426" lon="1.96736">
        <ele>144.82</ele>
        <time>2016-09-13T08:22:22Z</time>
      </trkpt>
      <trkpt lat="48.60406" lon="1.96779">
        <ele>144.82</ele>
        <time>2016-09-13T08:22:42Z</time>
      </trkpt>
      <trkpt lat="48.60395" lon="1.96806">
        <ele>143.85</ele>
        <time>2016-09-13T08:23:00Z</time>
      </trkpt>
      <trkpt lat="48.60379" lon="1.96838">
        <ele>140.97</ele>
        <time>2016-09-13T08:23:19Z</time>
      </trkpt>
      <trkpt lat="48.60374" lon="1.96852">
        <ele>137.61</ele>
        <time>2016-09-13T08:23:31Z</time>
      </trkpt>
      <trkpt lat="48.60369" lon="1.9687">
        <ele>134.24</ele>
        <time>2016-09-13T08:23:44Z</time>
      </trkpt>
      <trkpt lat="48.60362" lon="1.96888">
        <ele>130.88</ele>
        <time>2016-09-13T08:23:58Z</time>
      </trkpt>
      <trkpt lat="48.60348" lon="1.96917">
        <ele>127.99</ele>
        <time>2016-09-13T08:24:14Z</time>
      </trkpt>
      <trkpt lat="48.60328" lon="1.96956">
        <ele>125.59</ele>
        <time>2016-09-13T08:24:33Z</time>
      </trkpt>
      <trkpt lat="48.60312" lon="1.96994">
        <ele>124.63</ele>
        <time>2016-09-13T08:24:51Z</time>
      </trkpt>
      <trkpt lat="48.6031" lon="1.97024">
        <ele>123.67</ele>
        <time>2016-09-13T08:25:05Z</time>
      </trkpt>
      <trkpt lat="48.60319" lon="1.97065">
        <ele>123.67</ele>
        <time>2016-09-13T08:25:25Z</time>
      </trkpt>
      <trkpt lat="48.60331" lon="1.97106">
        <ele>123.19</ele>
        <time>2016-09-13T08:25:46Z</time>
      </trkpt>
      <trkpt lat="48.60352" lon="1.97136">
        <ele>122.71</ele>
        <time>2016-09-13T08:26:04Z</time>
      </trkpt>
      <trkpt lat="48.60356" lon="1.97141">
        <ele>123.19</ele>
        <time>2016-09-13T08:26:08Z</time>
      </trkpt>
      <trkpt lat="48.60358" lon="1.97147">
        <ele>122.71</ele>
        <time>2016-09-13T08:26:11Z</time>
      </trkpt>
      <trkpt lat="48.60361" lon="1.97156">
        <ele>122.71</ele>
        <time>2016-09-13T08:26:15Z</time>
      </trkpt>
      <trkpt lat="48.60371" lon="1.97182">
        <ele>123.19</ele>
        <time>2016-09-13T08:26:32Z</time>
      </trkpt>
      <trkpt lat="48.60385" lon="1.97207">
        <ele>121.74</ele>
        <time>2016-09-13T08:26:47Z</time>
      </trkpt>
      <trkpt lat="48.60409" lon="1.9724">
        <ele>120.78</ele>
        <time>2016-09-13T08:27:10Z</time>
      </trkpt>
      <trkpt lat="48.60439" lon="1.97259">
        <ele>119.82</ele>
        <time>2016-09-13T08:27:30Z</time>
      </trkpt>
      <trkpt lat="48.60445" lon="1.97267">
        <ele>119.34</ele>
        <time>2016-09-13T08:27:36Z</time>
      </trkpt>
      <trkpt lat="48.60477" lon="1.97276">
        <ele>118.38</ele>
        <time>2016-09-13T08:27:56Z</time>
      </trkpt>
      <trkpt lat="48.60481" lon="1.97277">
        <ele>118.38</ele>
        <time>2016-09-13T08:27:58Z</time>
      </trkpt>
      <trkpt lat="48.60511" lon="1.97291">
        <ele>116.46</ele>
        <time>2016-09-13T08:28:19Z</time>
      </trkpt>
      <trkpt lat="48.60532" lon="1.97305">
        <ele>115.98</ele>
        <time>2016-09-13T08:28:38Z</time>
      </trkpt>
      <trkpt lat="48.60554" lon="1.97329">
        <ele>115.01</ele>
        <time>2016-09-13T08:28:54Z</time>
      </trkpt>
      <trkpt lat="48.60581" lon="1.97359">
        <ele>114.05</ele>
        <time>2016-09-13T08:29:16Z</time>
      </trkpt>
      <trkpt lat="48.60606" lon="1.97397">
        <ele>111.65</ele>
        <time>2016-09-13T08:29:35Z</time>
      </trkpt>
      <trkpt lat="48.60624" lon="1.97424">
        <ele>111.17</ele>
        <time>2016-09-13T08:29:46Z</time>
      </trkpt>
      <trkpt lat="48.60648" lon="1.97445">
        <ele>110.69</ele>
        <time>2016-09-13T08:30:04Z</time>
      </trkpt>
      <trkpt lat="48.60674" lon="1.97467">
        <ele>109.73</ele>
        <time>2016-09-13T08:30:22Z</time>
      </trkpt>
      <trkpt lat="48.60696" lon="1.97475">
        <ele>108.77</ele>
        <time>2016-09-13T08:30:39Z</time>
      </trkpt>
      <trkpt lat="48.60714" lon="1.97467">
        <ele>107.32</ele>
        <time>2016-09-13T08:31:00Z</time>
      </trkpt>
      <trkpt lat="48.60738" lon="1.97453">
        <ele>106.84</ele>
        <time>2016-09-13T08:31:17Z</time>
      </trkpt>
      <trkpt lat="48.60752" lon="1.97445">
        <ele>106.36</ele>
        <time>2016-09-13T08:31:26Z</time>
      </trkpt>
      <trkpt lat="48.60774" lon="1.97439">
        <ele>105.88</ele>
        <time>2016-09-13T08:31:43Z</time>
      </trkpt>
      <trkpt lat="48.60779" lon="1.97443">
        <ele>105.4</ele>
        <time>2016-09-13T08:32:02Z</time>
      </trkpt>
      <trkpt lat="48.60779" lon="1.97447">
        <ele>105.4</ele>
        <time>2016-09-13T08:32:34Z</time>
      </trkpt>
      <trkpt lat="48.60786" lon="1.97443">
        <ele>104.92</ele>
        <time>2016-09-13T08:32:56Z</time>
      </trkpt>
      <trkpt lat="48.60787" lon="1.97443">
        <ele>104.92</ele>
        <time>2016-09-13T08:33:15Z</time>
      </trkpt>
      <trkpt lat="48.60781" lon="1.97442">
        <ele>104.44</ele>
        <time>2016-09-13T08:33:36Z</time>
      </trkpt>
      <trkpt lat="48.60779" lon="1.9745">
        <ele>104.44</ele>
        <time>2016-09-13T08:34:03Z</time>
      </trkpt>
      <trkpt lat="48.60779" lon="1.97444">
        <ele>103.96</ele>
        <time>2016-09-13T08:34:23Z</time>
      </trkpt>
      <trkpt lat="48.60779" lon="1.97441">
        <ele>103.96</ele>
        <time>2016-09-13T08:34:46Z</time>
      </trkpt>
      <trkpt lat="48.60785" lon="1.97441">
        <ele>103.96</ele>
        <time>2016-09-13T08:35:06Z</time>
      </trkpt>
      <trkpt lat="48.60791" lon="1.97449">
        <ele>103.96</ele>
        <time>2016-09-13T08:35:25Z</time>
      </trkpt>
      <trkpt lat="48.60791" lon="1.97479">
        <ele>103.48</ele>
        <time>2016-09-13T08:35:43Z</time>
      </trkpt>
      <trkpt lat="48.60796" lon="1.97513">
        <ele>102.52</ele>
        <time>2016-09-13T08:36:00Z</time>
      </trkpt>
      <trkpt lat="48.60815" lon="1.97553">
        <ele>102.52</ele>
        <time>2016-09-13T08:36:20Z</time>
      </trkpt>
      <trkpt lat="48.60816" lon="1.97554">
        <ele>102.52</ele>
        <time>2016-09-13T08:36:21Z</time>
      </trkpt>
      <trkpt lat="48.6082" lon="1.97575">
        <ele>102.04</ele>
        <time>2016-09-13T08:36:41Z</time>
      </trkpt>
      <trkpt lat="48.60822" lon="1.97587">
        <ele>102.52</ele>
        <time>2016-09-13T08:36:45Z</time>
      </trkpt>
      <trkpt lat="48.60829" lon="1.97619">
        <ele>102.52</ele>
        <time>2016-09-13T08:37:00Z</time>
      </trkpt>
      <trkpt lat="48.6083" lon="1.97626">
        <ele>102.52</ele>
        <time>2016-09-13T08:37:03Z</time>
      </trkpt>
      <trkpt lat="48.60831" lon="1.97637">
        <ele>102.04</ele>
        <time>2016-09-13T08:37:08Z</time>
      </trkpt>
      <trkpt lat="48.60834" lon="1.97689">
        <ele>101.56</ele>
        <time>2016-09-13T08:37:29Z</time>
      </trkpt>
      <trkpt lat="48.60837" lon="1.97708">
        <ele>101.56</ele>
        <time>2016-09-13T08:37:37Z</time>
      </trkpt>
      <trkpt lat="48.60831" lon="1.97758">
        <ele>101.08</ele>
        <time>2016-09-13T08:37:58Z</time>
      </trkpt>
      <trkpt lat="48.60824" lon="1.97811">
        <ele>100.6</ele>
        <time>2016-09-13T08:38:21Z</time>
      </trkpt>
      <trkpt lat="48.60819" lon="1.9786">
        <ele>100.11</ele>
        <time>2016-09-13T08:38:43Z</time>
      </trkpt>
      <trkpt lat="48.60819" lon="1.97885">
        <ele>100.11</ele>
        <time>2016-09-13T08:38:56Z</time>
      </trkpt>
      <trkpt lat="48.60815" lon="1.97924">
        <ele>100.11</ele>
        <time>2016-09-13T08:39:14Z</time>
      </trkpt>
      <trkpt lat="48.60806" lon="1.9797">
        <ele>100.6</ele>
        <time>2016-09-13T08:39:34Z</time>
      </trkpt>
      <trkpt lat="48.60799" lon="1.98011">
        <ele>100.11</ele>
        <time>2016-09-13T08:39:53Z</time>
      </trkpt>
      <trkpt lat="48.60785" lon="1.98054">
        <ele>100.11</ele>
        <time>2016-09-13T08:40:10Z</time>
      </trkpt>
      <trkpt lat="48.60776" lon="1.98096">
        <ele>99.63</ele>
        <time>2016-09-13T08:40:29Z</time>
      </trkpt>
      <trkpt lat="48.60769" lon="1.98137">
        <ele>99.63</ele>
        <time>2016-09-13T08:40:48Z</time>
      </trkpt>
      <trkpt lat="48.60762" lon="1.98172">
        <ele>99.15</ele>
        <time>2016-09-13T08:41:07Z</time>
      </trkpt>
      <trkpt lat="48.60748" lon="1.98213">
        <ele>98.67</ele>
        <time>2016-09-13T08:41:26Z</time>
      </trkpt>
      <trkpt lat="48.60741" lon="1.98238">
        <ele>99.15</ele>
        <time>2016-09-13T08:41:42Z</time>
      </trkpt>
      <trkpt lat="48.60737" lon="1.9826">
        <ele>97.71</ele>
        <time>2016-09-13T08:41:58Z</time>
      </trkpt>
      <trkpt lat="48.60729" lon="1.98274">
        <ele>98.19</ele>
        <time>2016-09-13T08:42:05Z</time>
      </trkpt>
      <trkpt lat="48.6071" lon="1.98288">
        <ele>98.19</ele>
        <time>2016-09-13T08:42:21Z</time>
      </trkpt>
      <trkpt lat="48.60686" lon="1.9829">
        <ele>98.19</ele>
        <time>2016-09-13T08:42:38Z</time>
      </trkpt>
      <trkpt lat="48.6068" lon="1.98291">
        <ele>98.19</ele>
        <time>2016-09-13T08:42:42Z</time>
      </trkpt>
      <trkpt lat="48.6067" lon="1.98294">
        <ele>98.19</ele>
        <time>2016-09-13T08:42:49Z</time>
      </trkpt>
      <trkpt lat="48.60648" lon="1.98306">
        <ele>98.19</ele>
        <time>2016-09-13T08:43:09Z</time>
      </trkpt>
      <trkpt lat="48.60621" lon="1.9832">
        <ele>98.67</ele>
        <time>2016-09-13T08:43:26Z</time>
      </trkpt>
      <trkpt lat="48.60601" lon="1.98329">
        <ele>99.15</ele>
        <time>2016-09-13T08:43:42Z</time>
      </trkpt>
      <trkpt lat="48.60587" lon="1.98332">
        <ele>99.15</ele>
        <time>2016-09-13T08:43:53Z</time>
      </trkpt>
      <trkpt lat="48.60549" lon="1.9835">
        <ele>98.67</ele>
        <time>2016-09-13T08:44:15Z</time>
      </trkpt>
      <trkpt lat="48.60537" lon="1.98351">
        <ele>98.67</ele>
        <time>2016-09-13T08:44:31Z</time>
      </trkpt>
      <trkpt lat="48.60537" lon="1.98349">
        <ele>98.19</ele>
        <time>2016-09-13T08:44:54Z</time>
      </trkpt>
      <trkpt lat="48.60537" lon="1.98348">
        <ele>98.67</ele>
        <time>2016-09-13T08:45:21Z</time>
      </trkpt>
      <trkpt lat="48.60532" lon="1.98347">
        <ele>98.19</ele>
        <time>2016-09-13T08:45:42Z</time>
      </trkpt>
      <trkpt lat="48.60522" lon="1.98349">
        <ele>98.19</ele>
        <time>2016-09-13T08:45:47Z</time>
      </trkpt>
      <trkpt lat="48.60489" lon="1.9836">
        <ele>97.23</ele>
        <time>2016-09-13T08:46:05Z</time>
      </trkpt>
      <trkpt lat="48.60461" lon="1.98368">
        <ele>97.23</ele>
        <time>2016-09-13T08:46:22Z</time>
      </trkpt>
      <trkpt lat="48.6043" lon="1.98378">
        <ele>97.71</ele>
        <time>2016-09-13T08:46:42Z</time>
      </trkpt>
      <trkpt lat="48.60403" lon="1.9839">
        <ele>97.71</ele>
        <time>2016-09-13T08:47:00Z</time>
      </trkpt>
      <trkpt lat="48.60374" lon="1.98407">
        <ele>98.67</ele>
        <time>2016-09-13T08:47:20Z</time>
      </trkpt>
      <trkpt lat="48.60359" lon="1.98414">
        <ele>101.08</ele>
        <time>2016-09-13T08:47:33Z</time>
      </trkpt>
      <trkpt lat="48.60335" lon="1.98436">
        <ele>102.04</ele>
        <time>2016-09-13T08:47:53Z</time>
      </trkpt>
      <trkpt lat="48.60324" lon="1.98447">
        <ele>102.04</ele>
        <time>2016-09-13T08:48:01Z</time>
      </trkpt>
      <trkpt lat="48.6032" lon="1.9845">
        <ele>102.04</ele>
        <time>2016-09-13T08:48:04Z</time>
      </trkpt>
      <trkpt lat="48.60306" lon="1.98463">
        <ele>102.04</ele>
        <time>2016-09-13T08:48:14Z</time>
      </trkpt>
      <trkpt lat="48.6029" lon="1.98499">
        <ele>101.08</ele>
        <time>2016-09-13T08:48:32Z</time>
      </trkpt>
      <trkpt lat="48.60272" lon="1.98534">
        <ele>100.6</ele>
        <time>2016-09-13T08:48:53Z</time>
      </trkpt>
      <trkpt lat="48.60259" lon="1.9855">
        <ele>101.08</ele>
        <time>2016-09-13T08:49:10Z</time>
      </trkpt>
      <trkpt lat="48.60239" lon="1.98569">
        <ele>101.08</ele>
        <time>2016-09-13T08:49:25Z</time>
      </trkpt>
      <trkpt lat="48.60212" lon="1.98599">
        <ele>102.04</ele>
        <time>2016-09-13T08:49:44Z</time>
      </trkpt>
      <trkpt lat="48.60189" lon="1.98618">
        <ele>103.48</ele>
        <time>2016-09-13T08:50:04Z</time>
      </trkpt>
      <trkpt lat="48.60166" lon="1.98639">
        <ele>103.96</ele>
        <time>2016-09-13T08:50:24Z</time>
      </trkpt>
      <trkpt lat="48.60151" lon="1.98656">
        <ele>105.4</ele>
        <time>2016-09-13T08:50:43Z</time>
      </trkpt>
      <trkpt lat="48.60124" lon="1.98687">
        <ele>105.4</ele>
        <time>2016-09-13T08:51:02Z</time>
      </trkpt>
      <trkpt lat="48.6012" lon="1.98692">
        <ele>105.4</ele>
        <time>2016-09-13T08:51:19Z</time>
      </trkpt>
      <trkpt lat="48.60131" lon="1.98664">
        <ele>105.4</ele>
        <time>2016-09-13T08:51:37Z</time>
      </trkpt>
      <trkpt lat="48.60132" lon="1.98662">
        <ele>105.4</ele>
        <time>2016-09-13T08:52:02Z</time>
      </trkpt>
      <trkpt lat="48.60132" lon="1.98661">
        <ele>105.4</ele>
        <time>2016-09-13T08:52:25Z</time>
      </trkpt>
      <trkpt lat="48.60129" lon="1.98668">
        <ele>105.88</ele>
        <time>2016-09-13T08:52:46Z</time>
      </trkpt>
      <trkpt lat="48.60128" lon="1.98674">
        <ele>105.88</ele>
        <time>2016-09-13T08:53:09Z</time>
      </trkpt>
      <trkpt lat="48.60121" lon="1.98663">
        <ele>105.88</ele>
        <time>2016-09-13T08:53:31Z</time>
      </trkpt>
      <trkpt lat="48.60121" lon="1.98664">
        <ele>105.88</ele>
        <time>2016-09-13T08:53:50Z</time>
      </trkpt>
      <trkpt lat="48.60122" lon="1.98669">
        <ele>106.36</ele>
        <time>2016-09-13T08:54:08Z</time>
      </trkpt>
      <trkpt lat="48.60122" lon="1.98669">
        <ele>103.48</ele>
        <time>2016-09-13T08:54:10Z</time>
      </trkpt>
      <trkpt lat="48.60122" lon="1.98669">
        <ele>110.21</ele>
        <time>2016-09-13T08:54:11Z</time>
      </trkpt>
      <trkpt lat="48.60122" lon="1.98669">
        <ele>106.84</ele>
        <time>2016-09-13T08:54:12Z</time>
      </trkpt>
      <trkpt lat="48.60125" lon="1.98669">
        <ele>106.36</ele>
        <time>2016-09-13T08:54:30Z</time>
      </trkpt>
      <trkpt lat="48.60113" lon="1.98655">
        <ele>107.32</ele>
        <time>2016-09-13T08:54:47Z</time>
      </trkpt>
      <trkpt lat="48.6011" lon="1.98631">
        <ele>107.81</ele>
        <time>2016-09-13T08:55:02Z</time>
      </trkpt>
      <trkpt lat="48.601" lon="1.98612">
        <ele>108.29</ele>
        <time>2016-09-13T08:55:20Z</time>
      </trkpt>
      <trkpt lat="48.60089" lon="1.98595">
        <ele>108.77</ele>
        <time>2016-09-13T08:55:37Z</time>
      </trkpt>
      <trkpt lat="48.60079" lon="1.98581">
        <ele>109.25</ele>
        <time>2016-09-13T08:55:48Z</time>
      </trkpt>
      <trkpt lat="48.60051" lon="1.98555">
        <ele>110.69</ele>
        <time>2016-09-13T08:56:11Z</time>
      </trkpt>
      <trkpt lat="48.60034" lon="1.98528">
        <ele>111.65</ele>
        <time>2016-09-13T08:56:28Z</time>
      </trkpt>
      <trkpt lat="48.60032" lon="1.98522">
        <ele>111.65</ele>
        <time>2016-09-13T08:56:31Z</time>
      </trkpt>
      <trkpt lat="48.60027" lon="1.98512">
        <ele>112.13</ele>
        <time>2016-09-13T08:56:36Z</time>
      </trkpt>
      <trkpt lat="48.60017" lon="1.98481">
        <ele>113.57</ele>
        <time>2016-09-13T08:56:53Z</time>
      </trkpt>
      <trkpt lat="48.59995" lon="1.98443">
        <ele>115.01</ele>
        <time>2016-09-13T08:57:15Z</time>
      </trkpt>
      <trkpt lat="48.59972" lon="1.98413">
        <ele>116.46</ele>
        <time>2016-09-13T08:57:37Z</time>
      </trkpt>
      <trkpt lat="48.5996" lon="1.98391">
        <ele>116.46</ele>
        <time>2016-09-13T08:57:49Z</time>
      </trkpt>
      <trkpt lat="48.5994" lon="1.98356">
        <ele>116.94</ele>
        <time>2016-09-13T08:58:11Z</time>
      </trkpt>
      <trkpt lat="48.59925" lon="1.98341">
        <ele>117.9</ele>
        <time>2016-09-13T08:58:25Z</time>
      </trkpt>
      <trkpt lat="48.59904" lon="1.98303">
        <ele>119.34</ele>
        <time>2016-09-13T08:58:47Z</time>
      </trkpt>
      <trkpt lat="48.59882" lon="1.98279">
        <ele>120.3</ele>
        <time>2016-09-13T08:59:07Z</time>
      </trkpt>
      <trkpt lat="48.59877" lon="1.98276">
        <ele>120.78</ele>
        <time>2016-09-13T08:59:11Z</time>
      </trkpt>
      <trkpt lat="48.59861" lon="1.98267">
        <ele>122.22</ele>
        <time>2016-09-13T08:59:26Z</time>
      </trkpt>
      <trkpt lat="48.59845" lon="1.98267">
        <ele>123.19</ele>
        <time>2016-09-13T08:59:39Z</time>
      </trkpt>
      <trkpt lat="48.59826" lon="1.98258">
        <ele>126.07</ele>
        <time>2016-09-13T08:59:56Z</time>
      </trkpt>
      <trkpt lat="48.59809" lon="1.98253">
        <ele>128.47</ele>
        <time>2016-09-13T09:00:13Z</time>
      </trkpt>
      <trkpt lat="48.59799" lon="1.98252">
        <ele>129.92</ele>
        <time>2016-09-13T09:00:21Z</time>
      </trkpt>
      <trkpt lat="48.59785" lon="1.98246">
        <ele>132.8</ele>
        <time>2016-09-13T09:00:36Z</time>
      </trkpt>
      <trkpt lat="48.5977" lon="1.98223">
        <ele>134.72</ele>
        <time>2016-09-13T09:00:56Z</time>
      </trkpt>
      <trkpt lat="48.59769" lon="1.98222">
        <ele>134.72</ele>
        <time>2016-09-13T09:00:57Z</time>
      </trkpt>
      <trkpt lat="48.59754" lon="1.98214">
        <ele>136.16</ele>
        <time>2016-09-13T09:01:12Z</time>
      </trkpt>
      <trkpt lat="48.59735" lon="1.98204">
        <ele>137.61</ele>
        <time>2016-09-13T09:01:31Z</time>
      </trkpt>
      <trkpt lat="48.59714" lon="1.98196">
        <ele>140.01</ele>
        <time>2016-09-13T09:01:50Z</time>
      </trkpt>
      <trkpt lat="48.59698" lon="1.9818">
        <ele>141.93</ele>
        <time>2016-09-13T09:02:07Z</time>
      </trkpt>
      <trkpt lat="48.59682" lon="1.98166">
        <ele>143.37</ele>
        <time>2016-09-13T09:02:25Z</time>
      </trkpt>
      <trkpt lat="48.59661" lon="1.98135">
        <ele>144.82</ele>
        <time>2016-09-13T09:02:47Z</time>
      </trkpt>
      <trkpt lat="48.5964" lon="1.98111">
        <ele>144.82</ele>
        <time>2016-09-13T09:03:06Z</time>
      </trkpt>
      <trkpt lat="48.59627" lon="1.98098">
        <ele>145.3</ele>
        <time>2016-09-13T09:03:19Z</time>
      </trkpt>
      <trkpt lat="48.59606" lon="1.9807">
        <ele>145.78</ele>
        <time>2016-09-13T09:03:40Z</time>
      </trkpt>
      <trkpt lat="48.59591" lon="1.98043">
        <ele>147.22</ele>
        <time>2016-09-13T09:03:59Z</time>
      </trkpt>
      <trkpt lat="48.59562" lon="1.98031">
        <ele>149.14</ele>
        <time>2016-09-13T09:04:21Z</time>
      </trkpt>
      <trkpt lat="48.59537" lon="1.98014">
        <ele>150.1</ele>
        <time>2016-09-13T09:04:42Z</time>
      </trkpt>
      <trkpt lat="48.59527" lon="1.98005">
        <ele>150.58</ele>
        <time>2016-09-13T09:04:50Z</time>
      </trkpt>
      <trkpt lat="48.595" lon="1.9799">
        <ele>150.58</ele>
        <time>2016-09-13T09:05:10Z</time>
      </trkpt>
      <trkpt lat="48.59477" lon="1.98008">
        <ele>151.06</ele>
        <time>2016-09-13T09:05:30Z</time>
      </trkpt>
      <trkpt lat="48.5947" lon="1.9802">
        <ele>150.58</ele>
        <time>2016-09-13T09:05:37Z</time>
      </trkpt>
      <trkpt lat="48.59451" lon="1.98047">
        <ele>150.58</ele>
        <time>2016-09-13T09:05:57Z</time>
      </trkpt>
      <trkpt lat="48.59431" lon="1.98076">
        <ele>150.58</ele>
        <time>2016-09-13T09:06:18Z</time>
      </trkpt>
      <trkpt lat="48.59408" lon="1.98086">
        <ele>149.14</ele>
        <time>2016-09-13T09:06:37Z</time>
      </trkpt>
      <trkpt lat="48.59405" lon="1.98083">
        <ele>149.62</ele>
        <time>2016-09-13T09:06:40Z</time>
      </trkpt>
      <trkpt lat="48.59394" lon="1.98075">
        <ele>150.1</ele>
        <time>2016-09-13T09:06:49Z</time>
      </trkpt>
      <trkpt lat="48.59381" lon="1.98062">
        <ele>150.58</ele>
        <time>2016-09-13T09:07:01Z</time>
      </trkpt>
      <trkpt lat="48.59362" lon="1.98042">
        <ele>150.1</ele>
        <time>2016-09-13T09:07:16Z</time>
      </trkpt>
      <trkpt lat="48.59349" lon="1.98009">
        <ele>149.62</ele>
        <time>2016-09-13T09:07:36Z</time>
      </trkpt>
      <trkpt lat="48.5935" lon="1.98009">
        <ele>149.62</ele>
        <time>2016-09-13T09:07:57Z</time>
      </trkpt>
      <trkpt lat="48.5935" lon="1.98011">
        <ele>150.1</ele>
        <time>2016-09-13T09:08:19Z</time>
      </trkpt>
      <trkpt lat="48.5935" lon="1.98011">
        <ele>150.1</ele>
        <time>2016-09-13T09:08:41Z</time>
      </trkpt>
      <trkpt lat="48.59351" lon="1.98013">
        <ele>150.1</ele>
        <time>2016-09-13T09:09:06Z</time>
      </trkpt>
      <trkpt lat="48.59352" lon="1.98011">
        <ele>150.1</ele>
        <time>2016-09-13T09:09:33Z</time>
      </trkpt>
      <trkpt lat="48.59352" lon="1.98009">
        <ele>150.1</ele>
        <time>2016-09-13T09:10:02Z</time>
      </trkpt>
      <trkpt lat="48.59352" lon="1.9801">
        <ele>150.1</ele>
        <time>2016-09-13T09:10:28Z</time>
      </trkpt>
      <trkpt lat="48.59357" lon="1.97991">
        <ele>150.58</ele>
        <time>2016-09-13T09:10:42Z</time>
      </trkpt>
      <trkpt lat="48.59359" lon="1.97976">
        <ele>150.58</ele>
        <time>2016-09-13T09:10:49Z</time>
      </trkpt>
      <trkpt lat="48.59367" lon="1.97948">
        <ele>150.58</ele>
        <time>2016-09-13T09:11:05Z</time>
      </trkpt>
      <trkpt lat="48.59368" lon="1.97919">
        <ele>150.58</ele>
        <time>2016-09-13T09:11:19Z</time>
      </trkpt>
      <trkpt lat="48.59366" lon="1.97889">
        <ele>150.58</ele>
        <time>2016-09-13T09:11:35Z</time>
      </trkpt>
      <trkpt lat="48.59358" lon="1.97858">
        <ele>150.58</ele>
        <time>2016-09-13T09:11:52Z</time>
      </trkpt>
      <trkpt lat="48.59349" lon="1.97826">
        <ele>150.58</ele>
        <time>2016-09-13T09:12:11Z</time>
      </trkpt>
      <trkpt lat="48.5934" lon="1.978">
        <ele>150.58</ele>
        <time>2016-09-13T09:12:28Z</time>
      </trkpt>
      <trkpt lat="48.59336" lon="1.97763">
        <ele>150.58</ele>
        <time>2016-09-13T09:12:45Z</time>
      </trkpt>
      <trkpt lat="48.59345" lon="1.97737">
        <ele>150.58</ele>
        <time>2016-09-13T09:13:03Z</time>
      </trkpt>
      <trkpt lat="48.59353" lon="1.97718">
        <ele>150.58</ele>
        <time>2016-09-13T09:13:17Z</time>
      </trkpt>
      <trkpt lat="48.59371" lon="1.97702">
        <ele>150.58</ele>
        <time>2016-09-13T09:13:36Z</time>
      </trkpt>
      <trkpt lat="48.59392" lon="1.97717">
        <ele>150.58</ele>
        <time>2016-09-13T09:13:55Z</time>
      </trkpt>
      <trkpt lat="48.59419" lon="1.97736">
        <ele>150.58</ele>
        <time>2016-09-13T09:14:16Z</time>
      </trkpt>
      <trkpt lat="48.5944" lon="1.97733">
        <ele>149.14</ele>
        <time>2016-09-13T09:14:37Z</time>
      </trkpt>
      <trkpt lat="48.59435" lon="1.97713">
        <ele>147.7</ele>
        <time>2016-09-13T09:14:53Z</time>
      </trkpt>
      <trkpt lat="48.59434" lon="1.9771">
        <ele>147.7</ele>
        <time>2016-09-13T09:14:55Z</time>
      </trkpt>
      <trkpt lat="48.59431" lon="1.9769">
        <ele>145.78</ele>
        <time>2016-09-13T09:15:07Z</time>
      </trkpt>
      <trkpt lat="48.5943" lon="1.97681">
        <ele>145.3</ele>
        <time>2016-09-13T09:15:12Z</time>
      </trkpt>
      <trkpt lat="48.59429" lon="1.97649">
        <ele>142.89</ele>
        <time>2016-09-13T09:15:28Z</time>
      </trkpt>
      <trkpt lat="48.59434" lon="1.97621">
        <ele>140.97</ele>
        <time>2016-09-13T09:15:44Z</time>
      </trkpt>
      <trkpt lat="48.59434" lon="1.97609">
        <ele>140.01</ele>
        <time>2016-09-13T09:15:52Z</time>
      </trkpt>
      <trkpt lat="48.59449" lon="1.97584">
        <ele>138.57</ele>
        <time>2016-09-13T09:16:10Z</time>
      </trkpt>
      <trkpt lat="48.59452" lon="1.97578">
        <ele>138.09</ele>
        <time>2016-09-13T09:16:14Z</time>
      </trkpt>
      <trkpt lat="48.59462" lon="1.97559">
        <ele>136.64</ele>
        <time>2016-09-13T09:16:27Z</time>
      </trkpt>
      <trkpt lat="48.59467" lon="1.97548">
        <ele>136.16</ele>
        <time>2016-09-13T09:16:33Z</time>
      </trkpt>
      <trkpt lat="48.59474" lon="1.97519">
        <ele>135.2</ele>
        <time>2016-09-13T09:16:46Z</time>
      </trkpt>
      <trkpt lat="48.59476" lon="1.97491">
        <ele>134.24</ele>
        <time>2016-09-13T09:17:02Z</time>
      </trkpt>
      <trkpt lat="48.59471" lon="1.97459">
        <ele>132.32</ele>
        <time>2016-09-13T09:17:18Z</time>
      </trkpt>
      <trkpt lat="48.5947" lon="1.97431">
        <ele>131.36</ele>
        <time>2016-09-13T09:17:35Z</time>
      </trkpt>
      <trkpt lat="48.59465" lon="1.97429">
        <ele>130.88</ele>
        <time>2016-09-13T09:17:39Z</time>
      </trkpt>
      <trkpt lat="48.5944" lon="1.97426">
        <ele>129.92</ele>
        <time>2016-09-13T09:18:01Z</time>
      </trkpt>
      <trkpt lat="48.59409" lon="1.97427">
        <ele>127.51</ele>
        <time>2016-09-13T09:18:21Z</time>
      </trkpt>
      <trkpt lat="48.59383" lon="1.97422">
        <ele>125.59</ele>
        <time>2016-09-13T09:18:43Z</time>
      </trkpt>
      <trkpt lat="48.59354" lon="1.97421">
        <ele>123.19</ele>
        <time>2016-09-13T09:19:04Z</time>
      </trkpt>
      <trkpt lat="48.59328" lon="1.97421">
        <ele>121.74</ele>
        <time>2016-09-13T09:19:24Z</time>
      </trkpt>
      <trkpt lat="48.5931" lon="1.97419">
        <ele>120.3</ele>
        <time>2016-09-13T09:19:44Z</time>
      </trkpt>
      <trkpt lat="48.59281" lon="1.97423">
        <ele>118.38</ele>
        <time>2016-09-13T09:20:03Z</time>
      </trkpt>
      <trkpt lat="48.59252" lon="1.9743">
        <ele>116.94</ele>
        <time>2016-09-13T09:20:24Z</time>
      </trkpt>
      <trkpt lat="48.59229" lon="1.97428">
        <ele>114.53</ele>
        <time>2016-09-13T09:20:44Z</time>
      </trkpt>
      <trkpt lat="48.59206" lon="1.97409">
        <ele>113.09</ele>
        <time>2016-09-13T09:21:07Z</time>
      </trkpt>
      <trkpt lat="48.59184" lon="1.97387">
        <ele>111.65</ele>
        <time>2016-09-13T09:21:27Z</time>
      </trkpt>
      <trkpt lat="48.59155" lon="1.97367">
        <ele>110.21</ele>
        <time>2016-09-13T09:21:48Z</time>
      </trkpt>
      <trkpt lat="48.59135" lon="1.97353">
        <ele>109.25</ele>
        <time>2016-09-13T09:22:03Z</time>
      </trkpt>
      <trkpt lat="48.59125" lon="1.97347">
        <ele>109.25</ele>
        <time>2016-09-13T09:22:10Z</time>
      </trkpt>
      <trkpt lat="48.59102" lon="1.9732">
        <ele>108.29</ele>
        <time>2016-09-13T09:22:32Z</time>
      </trkpt>
      <trkpt lat="48.59084" lon="1.97298">
        <ele>107.32</ele>
        <time>2016-09-13T09:22:50Z</time>
      </trkpt>
      <trkpt lat="48.59061" lon="1.9728">
        <ele>106.36</ele>
        <time>2016-09-13T09:23:11Z</time>
      </trkpt>
      <trkpt lat="48.59035" lon="1.9726">
        <ele>105.88</ele>
        <time>2016-09-13T09:23:31Z</time>
      </trkpt>
      <trkpt lat="48.59024" lon="1.97234">
        <ele>104.92</ele>
        <time>2016-09-13T09:23:47Z</time>
      </trkpt>
      <trkpt lat="48.59034" lon="1.97197">
        <ele>105.88</ele>
        <time>2016-09-13T09:24:07Z</time>
      </trkpt>
      <trkpt lat="48.5904" lon="1.97164">
        <ele>104.92</ele>
        <time>2016-09-13T09:24:24Z</time>
      </trkpt>
      <trkpt lat="48.59046" lon="1.9713">
        <ele>104.92</ele>
        <time>2016-09-13T09:24:41Z</time>
      </trkpt>
      <trkpt lat="48.59051" lon="1.97095">
        <ele>105.88</ele>
        <time>2016-09-13T09:25:00Z</time>
      </trkpt>
      <trkpt lat="48.59061" lon="1.9706">
        <ele>106.36</ele>
        <time>2016-09-13T09:25:21Z</time>
      </trkpt>
      <trkpt lat="48.59068" lon="1.97016">
        <ele>106.84</ele>
        <time>2016-09-13T09:25:40Z</time>
      </trkpt>
      <trkpt lat="48.59075" lon="1.96986">
        <ele>106.84</ele>
        <time>2016-09-13T09:25:56Z</time>
      </trkpt>
      <trkpt lat="48.59083" lon="1.96949">
        <ele>106.36</ele>
        <time>2016-09-13T09:26:16Z</time>
      </trkpt>
      <trkpt lat="48.59094" lon="1.96923">
        <ele>106.36</ele>
        <time>2016-09-13T09:26:33Z</time>
      </trkpt>
      <trkpt lat="48.59102" lon="1.96887">
        <ele>106.84</ele>
        <time>2016-09-13T09:26:52Z</time>
      </trkpt>
      <trkpt lat="48.59112" lon="1.96855">
        <ele>106.84</ele>
        <time>2016-09-13T09:27:10Z</time>
      </trkpt>
      <trkpt lat="48.59118" lon="1.96829">
        <ele>107.32</ele>
        <time>2016-09-13T09:27:27Z</time>
      </trkpt>
      <trkpt lat="48.59131" lon="1.96793">
        <ele>107.81</ele>
        <time>2016-09-13T09:27:46Z</time>
      </trkpt>
      <trkpt lat="48.59145" lon="1.96776">
        <ele>107.81</ele>
        <time>2016-09-13T09:28:04Z</time>
      </trkpt>
      <trkpt lat="48.59158" lon="1.96748">
        <ele>108.29</ele>
        <time>2016-09-13T09:28:24Z</time>
      </trkpt>
      <trkpt lat="48.59166" lon="1.96711">
        <ele>108.29</ele>
        <time>2016-09-13T09:28:39Z</time>
      </trkpt>
      <trkpt lat="48.59162" lon="1.96682">
        <ele>108.29</ele>
        <time>2016-09-13T09:28:57Z</time>
      </trkpt>
      <trkpt lat="48.59157" lon="1.96634">
        <ele>107.81</ele>
        <time>2016-09-13T09:29:12Z</time>
      </trkpt>
      <trkpt lat="48.59158" lon="1.96625">
        <ele>107.81</ele>
        <time>2016-09-13T09:29:18Z</time>
      </trkpt>
      <trkpt lat="48.59164" lon="1.96605">
        <ele>108.29</ele>
        <time>2016-09-13T09:29:34Z</time>
      </trkpt>
      <trkpt lat="48.59169" lon="1.96603">
        <ele>108.77</ele>
        <time>2016-09-13T09:29:53Z</time>
      </trkpt>
      <trkpt lat="48.59176" lon="1.96613">
        <ele>109.25</ele>
        <time>2016-09-13T09:30:14Z</time>
      </trkpt>
      <trkpt lat="48.59182" lon="1.96621">
        <ele>108.77</ele>
        <time>2016-09-13T09:30:42Z</time>
      </trkpt>
      <trkpt lat="48.59179" lon="1.96615">
        <ele>109.25</ele>
        <time>2016-09-13T09:31:00Z</time>
      </trkpt>
    </trkseg>
  </trk>
</gpx>